Resums METAR propers

 

LEGE - Gerona/Costa Bra, Spain
DistÓncia des de l'estaciˇ: S 12km
Actualitzaciˇ: 23/09/2021 11:00
Molt cobert
Molt cobert
 Vent del N
Vent: N 15 km/h
Temperatura: 66°F , 19°C
Rosada: 59°F , 15°C
Humitat: 78%
Bar˛metre: 1021 hPa
Nuvolositat: Molt cobert
Visibilitat: 10 km
Detalls nuvolositat: Alguns n˙vols 4500 ft
Molt cobert 6000 ft
2021/09/23 09:00 LEGE 230900Z 01008KT 330V040 9999 FEW045 BKN060 19/15 Q1021 REDZ